Time;durP1;ratioP1;P1;durP2;ratioP2;P2;SDS_P1;SDS_P2;PMS_P1;PMS_P2;Temp;Humidity;BMP_temperature;BMP_pressure;BME280_temperature;BME280_humidity;BME280_pressure;Samples;Min_cycle;Max_cycle;Signal;HPM_P1;HPM_P2
2023/04/08 00:02:07;;;;;;;;;14.00;12.00;;;;;10.34;100.00;101794.84;5083264;28;46089;-75
2023/04/08 00:04:32;;;;;;;;;14.33;13.67;;;;;10.25;100.00;101783.28;5083567;27;45228;-75
2023/04/08 00:06:57;;;;;;;;;10.33;10.33;;;;;10.34;100.00;101800.19;5082335;28;45228;-75
2023/04/08 00:09:23;;;;;;;;;12.67;12.00;;;;;10.31;100.00;101803.13;5083788;28;45219;-75
2023/04/08 00:11:48;;;;;;;;;12.33;10.67;;;;;10.27;100.00;101805.25;5082049;28;45280;-75
2023/04/08 00:14:13;;;;;;;;;11.00;11.00;;;;;10.24;100.00;101808.19;5080654;28;60153;-75
2023/04/08 00:16:39;;;;;;;;;15.00;11.67;;;;;10.26;100.00;101808.88;5083343;27;46126;-75
2023/04/08 00:19:05;;;;;;;;;15.00;13.33;;;;;10.25;100.00;101817.84;5084544;27;45399;-75
2023/04/08 00:21:31;;;;;;;;;14.33;13.33;;;;;10.23;100.00;101814.47;5083274;27;45345;-75
2023/04/08 00:23:56;;;;;;;;;15.33;12.67;;;;;10.05;100.00;101795.78;5082873;28;45591;-75
2023/04/08 00:26:21;;;;;;;;;15.67;14.00;;;;;10.05;100.00;101811.72;5082700;27;45369;-75
2023/04/08 00:28:47;;;;;;;;;13.33;12.67;;;;;9.96;100.00;101802.81;5081204;28;56229;-75
2023/04/08 00:31:12;;;;;;;;;10.67;10.67;;;;;9.87;100.00;101809.00;5062274;28;45326;-75
2023/04/08 00:33:37;;;;;;;;;11.00;9.33;;;;;9.78;100.00;101800.06;5080207;28;49152;-75
2023/04/08 00:36:03;;;;;;;;;13.67;13.33;;;;;9.79;100.00;101813.19;5081211;28;46240;-76
2023/04/08 00:38:29;;;;;;;;;11.00;8.00;;;;;9.73;100.00;101811.94;5063483;28;45660;-75
2023/04/08 00:40:54;;;;;;;;;13.33;13.00;;;;;9.66;100.00;101808.19;5082215;28;45291;-75
2023/04/08 00:43:20;;;;;;;;;10.67;10.67;;;;;9.65;100.00;101814.50;5082241;28;45485;-76
2023/04/08 00:45:46;;;;;;;;;14.00;12.67;;;;;9.51;100.00;101796.31;5064178;28;48109;-75
2023/04/08 00:48:12;;;;;;;;;17.00;16.33;;;;;9.52;100.00;101809.44;5081078;28;45249;-75
2023/04/08 00:50:37;;;;;;;;;16.33;16.33;;;;;9.47;100.00;101804.59;5081118;28;45566;-75
2023/04/08 00:53:03;;;;;;;;;12.67;12.67;;;;;9.34;100.00;101791.59;5082316;28;45494;-76
2023/04/08 00:55:28;;;;;;;;;13.33;13.33;;;;;9.40;100.00;101816.72;5080487;28;53110;-75
2023/04/08 00:57:55;;;;;;;;;14.67;12.33;;;;;9.37;100.00;101818.81;5060917;28;50984;-75
2023/04/08 01:00:21;;;;;;;;;13.67;12.67;;;;;9.30;100.00;101810.56;5080428;28;45388;-75
2023/04/08 01:02:52;;;;;;;;;15.33;15.00;;;;;9.30;100.00;101813.22;5080505;27;45437;-75
2023/04/08 01:05:22;;;;;;;;;15.00;14.00;;;;;9.21;100.00;101813.09;5062183;28;47558;-75
2023/04/08 01:07:49;;;;;;;;;16.33;14.67;;;;;9.19;100.00;101811.56;5062456;28;45293;-75
2023/04/08 01:10:18;;;;;;;;;16.33;13.00;;;;;9.15;100.00;101815.44;5081099;28;45300;-75
2023/04/08 01:12:54;;;;;;;;;9.67;8.33;;;;;9.12;100.00;101821.03;5080715;28;45331;-76
2023/04/08 01:15:20;;;;;;;;;17.33;13.33;;;;;9.02;100.00;101800.66;5061078;28;47198;-75
2023/04/08 01:17:49;;;;;;;;;14.33;13.00;;;;;9.03;100.00;101820.91;5079963;28;45330;-76
2023/04/08 01:20:16;;;;;;;;;13.00;11.67;;;;;8.91;100.00;101806.91;5081097;28;45256;-75
2023/04/08 01:22:47;;;;;;;;;12.00;12.00;;;;;8.98;100.00;101814.34;5078631;28;47274;-75
2023/04/08 01:25:19;;;;;;;;;13.67;12.67;;;;;8.92;100.00;101819.19;5060526;28;47175;-75
2023/04/08 01:27:47;;;;;;;;;14.33;12.33;;;;;8.89;100.00;101811.50;5079187;28;45486;-75
2023/04/08 01:30:16;;;;;;;;;12.00;12.00;;;;;8.93;100.00;101828.84;5079650;28;45344;-75
2023/04/08 01:32:44;;;;;;;;;13.00;12.00;;;;;8.95;100.00;101818.91;5078472;28;47544;-75
2023/04/08 01:35:10;;;;;;;;;13.00;12.33;;;;;8.94;100.00;101814.59;5080504;27;46089;-76
2023/04/08 01:37:36;;;;;;;;;11.00;10.67;;;;;8.89;100.00;101813.34;5080531;28;45299;-75
2023/04/08 01:40:04;;;;;;;;;9.67;9.67;;;;;8.84;100.00;101819.06;5081670;27;45248;-75
2023/04/08 01:42:32;;;;;;;;;12.67;12.33;;;;;8.83;100.00;101812.09;5079712;28;47145;-76
2023/04/08 01:44:59;;;;;;;;;15.67;13.00;;;;;8.70;100.00;101807.00;5079109;28;48501;-75
2023/04/08 01:47:25;;;;;;;;;14.33;13.67;;;;;8.69;100.00;101808.00;5079746;28;45390;-76
2023/04/08 01:49:52;;;;;;;;;14.33;13.33;;;;;8.57;100.00;101802.81;5081357;27;45314;-75
2023/04/08 01:52:19;;;;;;;;;11.67;10.67;;;;;8.50;100.00;101793.66;5080266;28;45538;-75
2023/04/08 01:54:46;;;;;;;;;11.33;11.33;;;;;8.54;100.00;101804.88;5081073;27;45322;-76
2023/04/08 01:57:16;;;;;;;;;14.00;13.33;;;;;8.49;100.00;101802.59;5081432;27;45264;-75
2023/04/08 01:59:42;;;;;;;;;11.00;11.00;;;;;8.52;100.00;101810.28;5081976;27;45396;-75
2023/04/08 02:02:09;;;;;;;;;13.67;11.33;;;;;8.49;100.00;101801.75;5079420;28;45350;-75
2023/04/08 02:04:35;;;;;;;;;13.00;13.00;;;;;8.56;100.00;101811.72;5079744;27;45372;-75
2023/04/08 02:07:01;;;;;;;;;11.00;11.00;;;;;8.58;100.00;101814.22;5082593;27;45251;-75
2023/04/08 02:09:27;;;;;;;;;9.33;7.67;;;;;8.50;100.00;101800.78;5082915;28;45235;-76
2023/04/08 02:11:52;;;;;;;;;8.33;7.00;;;;;8.51;100.00;101800.66;5087385;27;44764;-76
2023/04/08 02:14:17;;;;;;;;;15.33;13.33;;;;;8.55;100.00;101811.84;5086001;28;47265;-76
2023/04/08 02:16:53;;;;;;;;;12.00;11.00;;;;;8.52;100.00;101810.28;5084708;28;57957;-76
2023/04/08 02:19:29;;;;;;;;;13.00;13.00;;;;;8.42;100.00;101810.25;5083911;27;45256;-76
2023/04/08 02:22:04;;;;;;;;;18.33;12.33;;;;;8.38;100.00;101808.81;5087303;28;45544;-76
2023/04/08 02:24:32;;;;;;;;;12.00;11.00;;;;;8.43;100.00;101819.03;5084242;28;46363;-76
2023/04/08 02:27:00;;;;;;;;;11.33;11.00;;;;;8.41;100.00;101813.03;5086591;27;45365;-77
2023/04/08 02:29:28;;;;;;;;;13.33;12.67;;;;;8.42;100.00;101820.00;5077547;28;45348;-76
2023/04/08 02:31:55;;;;;;;;;12.00;10.67;;;;;8.34;100.00;101805.63;5066373;28;45946;-76
2023/04/08 02:34:21;;;;;;;;;11.00;11.00;;;;;8.31;100.00;101807.69;5084910;28;45466;-77
2023/04/08 02:36:47;;;;;;;;;13.00;13.00;;;;;8.33;100.00;101819.00;5083917;28;45229;-76
2023/04/08 02:39:12;;;;;;;;;14.00;11.00;;;;;8.21;100.00;101808.47;5084193;28;45411;-76
2023/04/08 02:41:38;;;;;;;;;9.67;9.67;;;;;8.25;100.00;101824.09;5084250;28;45372;-76
2023/04/08 02:44:03;;;;;;;;;13.00;13.00;;;;;8.08;100.00;101802.53;5085092;28;50585;-76
2023/04/08 02:46:28;;;;;;;;;10.67;10.00;;;;;8.13;100.00;101816.25;5084377;28;53107;-76
2023/04/08 02:48:53;;;;;;;;;10.67;9.67;;;;;8.09;100.00;101815.66;5086784;28;45277;-76
2023/04/08 02:51:19;;;;;;;;;10.67;10.67;;;;;8.01;100.00;101817.28;5066993;28;46184;-76
2023/04/08 02:53:44;;;;;;;;;12.67;12.67;;;;;7.98;100.00;101820.19;5067463;28;47217;-76
2023/04/08 02:56:10;;;;;;;;;11.67;11.00;;;;;8.00;100.00;101824.41;5085533;28;55588;-76
2023/04/08 02:58:35;;;;;;;;;13.33;12.33;;;;;7.93;100.00;101825.91;5084596;28;45293;-76
2023/04/08 03:01:00;;;;;;;;;11.00;10.33;;;;;7.91;100.00;101820.75;5083619;28;45229;-76
2023/04/08 03:03:28;;;;;;;;;11.33;10.67;;;;;7.88;100.00;101817.50;5083685;28;56658;-76
2023/04/08 03:05:54;;;;;;;;;10.67;10.00;;;;;7.88;100.00;101828.09;5085073;28;45323;-76
2023/04/08 03:08:20;;;;;;;;;10.00;8.33;;;;;7.91;100.00;101825.19;5084501;28;45303;-76
2023/04/08 03:10:46;;;;;;;;;11.33;10.00;;;;;7.88;100.00;101826.28;5083829;28;45488;-76
2023/04/08 03:13:11;;;;;;;;;11.33;11.33;;;;;7.89;100.00;101827.97;5065459;28;48768;-76
2023/04/08 03:15:37;;;;;;;;;11.67;11.00;;;;;7.88;100.00;101834.22;5084036;28;45357;-76
2023/04/08 03:18:02;;;;;;;;;10.33;10.33;;;;;7.83;100.00;101829.31;5065230;28;45369;-76
2023/04/08 03:20:27;;;;;;;;;12.67;12.33;;;;;7.85;100.00;101834.47;5065243;28;46365;-76
2023/04/08 03:22:53;;;;;;;;;13.00;12.33;;;;;7.78;100.00;101818.25;5065654;28;46949;-76
2023/04/08 03:25:18;;;;;;;;;9.00;9.00;;;;;7.82;100.00;101829.44;5082868;28;55661;-76
2023/04/08 03:27:43;;;;;;;;;13.67;11.67;;;;;7.80;100.00;101821.63;5066065;28;46944;-76
2023/04/08 03:30:09;;;;;;;;;11.00;11.00;;;;;7.75;100.00;101817.69;5082496;28;45233;-76
2023/04/08 03:32:35;;;;;;;;;18.67;15.00;;;;;7.73;100.00;101814.34;5083185;27;45352;-76
2023/04/08 03:35:00;;;;;;;;;10.33;10.33;;;;;7.73;100.00;101809.88;5084271;27;45299;-76
2023/04/08 03:37:25;;;;;;;;;11.33;10.00;;;;;7.85;100.00;101842.44;5081936;28;45476;-76
2023/04/08 03:39:53;;;;;;;;;10.67;10.67;;;;;7.79;100.00;101832.34;5082150;28;45877;-76
2023/04/08 03:42:18;;;;;;;;;11.00;11.00;;;;;7.81;100.00;101833.88;5081990;27;46958;-76
2023/04/08 03:44:44;;;;;;;;;12.00;10.33;;;;;7.90;100.00;101837.56;5080580;28;45642;-76
2023/04/08 03:47:09;;;;;;;;;15.00;11.67;;;;;7.89;100.00;101840.34;5084012;28;45418;-76
2023/04/08 03:49:35;;;;;;;;;10.00;9.00;;;;;7.95;100.00;101834.53;5084847;28;45326;-76
2023/04/08 03:52:00;;;;;;;;;11.33;10.00;;;;;7.95;100.00;101839.81;5084456;28;45388;-76
2023/04/08 03:54:26;;;;;;;;;11.67;10.33;;;;;7.92;100.00;101832.13;5065658;28;45856;-76
2023/04/08 03:56:51;;;;;;;;;13.00;12.00;;;;;7.83;100.00;101831.13;5082438;28;45312;-76
2023/04/08 03:59:16;;;;;;;;;10.67;10.67;;;;;7.77;100.00;101821.88;5064660;28;52889;-76
2023/04/08 04:01:42;;;;;;;;;9.00;9.00;;;;;7.80;100.00;101834.88;5082955;28;51225;-76
2023/04/08 04:04:07;;;;;;;;;11.00;10.00;;;;;7.77;100.00;101836.91;5083689;28;45407;-76
2023/04/08 04:06:32;;;;;;;;;11.67;10.00;;;;;7.67;100.00;101831.56;5065080;28;45351;-76
2023/04/08 04:08:58;;;;;;;;;15.50;11.50;;;;;7.69;100.00;101843.69;5082803;28;45368;-77
2023/04/08 04:11:23;;;;;;;;;8.00;8.00;;;;;7.67;100.00;101834.22;5083271;28;45617;-76
2023/04/08 04:13:49;;;;;;;;;11.67;10.00;;;;;7.61;100.00;101837.38;5083120;28;45751;-76
2023/04/08 04:16:14;;;;;;;;;11.00;11.00;;;;;7.53;100.00;101836.19;5083201;28;45248;-76
2023/04/08 04:18:39;;;;;;;;;11.00;11.00;;;;;7.51;100.00;101848.69;5084328;28;45228;-76
2023/04/08 04:21:06;;;;;;;;;13.33;11.00;;;;;7.42;100.00;101830.94;5083453;28;57520;-76
2023/04/08 04:23:31;;;;;;;;;11.67;11.00;;;;;7.44;100.00;101843.09;5065095;28;45314;-76
2023/04/08 04:25:56;;;;;;;;;10.33;10.33;;;;;7.37;100.00;101841.91;5083821;28;45451;-76
2023/04/08 04:28:22;;;;;;;;;8.33;8.33;;;;;7.31;100.00;101832.66;5081463;28;45348;-76
2023/04/08 04:30:47;;;;;;;;;14.50;14.50;;;;;7.31;100.00;101842.41;5080693;28;56204;-76
2023/04/08 04:33:12;;;;;;;;;9.00;8.00;;;;;7.27;100.00;101844.47;5081630;28;45279;-76
2023/04/08 04:35:38;;;;;;;;;10.33;9.00;;;;;7.23;100.00;101840.41;5083120;27;45329;-76
2023/04/08 04:38:09;;;;;;;;;13.25;11.50;;;;;7.23;100.00;101850.13;5084233;27;45207;-76
2023/04/08 04:40:35;;;;;;;;;11.00;11.00;;;;;7.24;100.00;101857.94;5082025;28;47592;-77
2023/04/08 04:43:00;;;;;;;;;13.33;13.33;;;;;7.13;100.00;101845.59;5082121;28;45291;-76
2023/04/08 04:45:25;;;;;;;;;9.67;9.67;;;;;7.10;100.00;101847.66;5083057;27;45291;-76
2023/04/08 04:47:50;;;;;;;;;10.00;10.00;;;;;7.13;100.00;101856.19;5080838;28;50787;-77
2023/04/08 04:50:16;;;;;;;;;16.00;14.25;;;;;7.05;100.00;101853.28;5081164;28;45221;-78
2023/04/08 04:52:41;;;;;;;;;12.67;10.00;;;;;7.03;100.00;101856.06;5080453;28;45183;-76
2023/04/08 04:55:07;;;;;;;;;12.33;10.33;;;;;7.04;100.00;101863.03;5080442;27;45269;-77
2023/04/08 04:57:32;;;;;;;;;13.00;13.00;;;;;7.03;100.00;101868.44;5080146;28;45308;-76
2023/04/08 04:59:57;;;;;;;;;13.75;12.25;;;;;6.95;100.00;101855.84;5079875;27;53717;-77
2023/04/08 05:02:23;;;;;;;;;12.75;12.75;;;;;6.94;100.00;101867.38;5079740;27;50798;-77
2023/04/08 05:04:48;;;;;;;;;17.25;12.75;;;;;6.95;100.00;101866.44;5079718;28;52535;-76
2023/04/08 05:07:13;;;;;;;;;13.50;12.50;;;;;6.94;100.00;101880.56;5079529;28;55646;-77
2023/04/08 05:09:39;;;;;;;;;16.67;15.00;;;;;6.84;100.00;101863.78;5079594;28;55205;-77
2023/04/08 05:12:04;;;;;;;;;11.00;10.00;;;;;6.90;100.00;101880.00;5080065;28;45432;-77
2023/04/08 05:14:30;;;;;;;;;16.33;16.00;;;;;6.85;100.00;101881.34;5080154;28;45306;-77
2023/04/08 05:16:56;;;;;;;;;15.00;12.33;;;;;6.90;100.00;101887.94;5079591;28;45396;-77
2023/04/08 05:19:21;;;;;;;;;15.50;13.25;;;;;6.75;100.00;101876.75;5079888;27;45346;-77
2023/04/08 05:21:46;;;;;;;;;10.00;10.00;;;;;6.84;100.00;101893.69;5079928;27;45350;-77
2023/04/08 05:24:12;;;;;;;;;12.00;11.00;;;;;6.79;100.00;101882.63;5079934;28;45300;-77
2023/04/08 05:26:37;;;;;;;;;15.67;12.33;;;;;6.84;100.00;101883.13;5079060;27;45448;-77
2023/04/08 05:29:02;;;;;;;;;14.33;10.67;;;;;6.74;100.00;101872.44;5078584;28;45324;-77
2023/04/08 05:31:27;;;;;;;;;20.00;14.75;;;;;6.81;100.00;101893.94;5059768;28;55843;-77
2023/04/08 05:33:53;;;;;;;;;15.00;14.00;;;;;6.79;100.00;101893.19;5060427;28;53063;-77
2023/04/08 05:36:18;;;;;;;;;14.50;12.75;;;;;6.78;100.00;101894.19;5078916;28;55178;-77
2023/04/08 05:38:43;;;;;;;;;15.00;14.25;;;;;6.76;100.00;101893.47;5079634;28;45264;-76
2023/04/08 05:41:09;;;;;;;;;19.50;14.50;;;;;6.73;100.00;101886.59;5062507;28;45870;-77
2023/04/08 05:43:35;;;;;;;;;15.25;14.00;;;;;6.78;100.00;101910.88;5083533;28;45229;-78
2023/04/08 05:46:09;;;;;;;;;15.75;12.75;;;;;6.74;100.00;101903.31;5083049;28;45199;-78
2023/04/08 05:48:35;;;;;;;;;17.00;15.50;;;;;6.73;100.00;101897.16;5083803;28;45391;-77
2023/04/08 05:51:00;;;;;;;;;11.75;11.00;;;;;6.75;100.00;101903.19;5072751;28;45272;-77
2023/04/08 05:53:25;;;;;;;;;12.50;12.50;;;;;6.73;100.00;101909.56;5080282;28;45291;-76
2023/04/08 05:55:51;;;;;;;;;15.75;13.75;;;;;6.72;100.00;101907.84;5064543;28;52272;-78
2023/04/08 05:58:16;;;;;;;;;17.25;15.00;;;;;6.73;100.00;101915.66;5082734;28;45390;-77
2023/04/08 06:00:41;;;;;;;;;17.25;16.00;;;;;6.65;100.00;101899.59;5081963;28;45379;-77
2023/04/08 06:03:07;;;;;;;;;17.00;15.50;;;;;6.67;100.00;101902.94;5062800;28;45221;-76
2023/04/08 06:05:32;;;;;;;;;18.75;17.25;;;;;6.72;100.00;101916.63;5062451;28;45490;-77
2023/04/08 06:07:57;;;;;;;;;15.25;14.00;;;;;6.74;100.00;101919.16;5061116;28;55258;-77
2023/04/08 06:10:22;;;;;;;;;17.75;17.00;;;;;6.79;100.00;101930.19;5062514;28;45332;-77
2023/04/08 06:12:48;;;;;;;;;18.25;16.25;;;;;6.85;100.00;101942.13;5062484;28;45244;-78
2023/04/08 06:15:13;;;;;;;;;21.75;21.75;;;;;6.81;100.00;101936.22;5061114;28;46377;-78
2023/04/08 06:17:38;;;;;;;;;17.25;16.75;;;;;6.68;100.00;101920.50;5043767;28;48041;-79
2023/04/08 06:20:05;;;;;;;;;16.75;15.25;;;;;6.88;100.00;101948.00;5062020;28;47125;-79
2023/04/08 06:22:30;;;;;;;;;17.25;16.00;;;;;6.90;100.00;101945.22;5044030;28;45364;-81
2023/04/08 06:24:56;;;;;;;;;21.00;18.50;;;;;6.93;100.00;101937.91;5062085;28;45596;-79
2023/04/08 06:27:21;;;;;;;;;16.00;15.75;;;;;6.97;100.00;101941.13;5043695;28;47434;-80
2023/04/08 06:29:46;;;;;;;;;16.00;15.75;;;;;7.04;100.00;101937.03;5060772;28;45327;-79
2023/04/08 06:32:13;;;;;;;;;20.75;16.00;;;;;7.17;100.00;101952.78;5063478;28;50532;-79
2023/04/08 06:34:39;;;;;;;;;18.00;18.00;;;;;7.24;100.00;101960.25;5064031;28;46254;-80
2023/04/08 06:37:05;;;;;;;;;16.50;14.75;;;;;7.32;100.00;101965.75;5081240;28;45442;-80
2023/04/08 06:39:30;;;;;;;;;16.50;16.25;;;;;7.40;100.00;101959.84;5080852;28;45558;-79
2023/04/08 06:41:56;;;;;;;;;17.00;14.67;;;;;7.44;100.00;101956.00;5081231;28;45209;-79
2023/04/08 06:44:22;;;;;;;;;20.00;16.25;;;;;7.54;100.00;101964.88;5062112;28;46359;-80
2023/04/08 06:46:47;;;;;;;;;18.25;16.25;;;;;7.65;100.00;101971.94;5080579;28;45318;-79
2023/04/08 06:49:13;;;;;;;;;17.50;16.25;;;;;7.79;100.00;101972.63;5081217;28;51778;-80
2023/04/08 06:51:38;;;;;;;;;19.75;18.75;;;;;7.87;100.00;101975.47;5062028;28;45371;-80
2023/04/08 06:54:03;;;;;;;;;20.25;19.25;;;;;7.82;100.00;101957.31;5061266;28;58160;-79
2023/04/08 06:56:29;;;;;;;;;22.25;18.25;;;;;8.04;100.00;101976.75;5081019;28;45353;-79
2023/04/08 06:58:54;;;;;;;;;20.00;16.50;;;;;8.06;100.00;101958.09;5081221;28;45290;-79
2023/04/08 07:01:19;;;;;;;;;26.25;23.75;;;;;8.23;100.00;101979.69;5063318;28;45448;-80
2023/04/08 07:03:45;;;;;;;;;24.50;21.00;;;;;8.18;100.00;101964.16;5062613;28;46308;-80
2023/04/08 07:06:10;;;;;;;;;19.33;17.67;;;;;8.33;100.00;101975.28;5080760;28;45434;-79
2023/04/08 07:08:36;;;;;;;;;26.75;23.25;;;;;8.39;100.00;101974.78;5081216;28;45327;-80
2023/04/08 07:11:01;;;;;;;;;22.75;21.00;;;;;8.57;100.00;101990.97;5063647;28;45273;-79
2023/04/08 07:13:28;;;;;;;;;26.25;23.25;;;;;8.59;100.00;101974.91;5080808;28;45480;-79
2023/04/08 07:15:53;;;;;;;;;25.50;21.75;;;;;8.69;100.00;101981.13;5080693;28;45390;-79
2023/04/08 07:18:20;;;;;;;;;29.00;25.00;;;;;8.77;100.00;101977.78;5080392;28;45239;-80
2023/04/08 07:20:50;;;;;;;;;27.50;26.00;;;;;8.89;100.00;101990.97;5062421;28;45260;-79
2023/04/08 07:23:15;;;;;;;;;30.00;25.75;;;;;8.88;100.00;101976.88;5068067;28;45529;-79
2023/04/08 07:25:40;;;;;;;;;28.00;28.00;;;;;9.06;100.00;101994.81;5073790;28;46194;-79
2023/04/08 07:28:06;;;;;;;;;34.00;28.50;;;;;9.09;100.00;101992.75;5066042;28;45445;-80
2023/04/08 07:30:31;;;;;;;;;31.50;28.25;;;;;9.22;100.00;101996.97;5070911;28;45352;-80
2023/04/08 07:32:57;;;;;;;;;33.50;27.75;;;;;9.24;100.00;101988.88;5070247;28;45526;-80
2023/04/08 07:35:23;;;;;;;;;27.00;25.67;;;;;9.37;100.00;101999.25;5018293;28;1139080;-80
2023/04/08 07:37:50;;;;;;;;;30.00;26.00;;;;;9.37;100.00;101988.66;5072300;28;46180;-80
2023/04/08 07:40:15;;;;;;;;;30.75;27.25;;;;;9.57;100.00;102005.44;5045607;28;45783;-79
2023/04/08 07:42:41;;;;;;;;;28.00;24.75;;;;;9.49;100.00;101986.72;5081177;28;45304;-80
2023/04/08 07:45:07;;;;;;;;;28.75;28.00;;;;;9.63;100.00;101996.09;5054277;28;47331;-79
2023/04/08 07:47:32;;;;;;;;;31.33;30.67;;;;;9.72;100.00;102004.09;5072858;28;45398;-79
2023/04/08 07:49:57;;;;;;;;;31.00;27.33;;;;;9.73;100.00;101997.78;5063942;28;49701;-79
2023/04/08 07:52:23;;;;;;;;;28.33;25.33;;;;;9.76;100.00;101986.03;5081331;28;52421;-79
2023/04/08 07:54:48;;;;;;;;;25.67;24.00;;;;;9.91;100.00;102002.41;5079808;28;46112;-79
2023/04/08 07:57:13;;;;;;;;;28.33;27.00;;;;;10.01;100.00;102009.56;5080443;28;58994;-79
2023/04/08 07:59:39;;;;;;;;;31.00;28.00;;;;;10.07;100.00;102006.34;5061450;27;45437;-80
2023/04/08 08:02:04;;;;;;;;;24.67;24.33;;;;;10.14;100.00;102012.78;5050532;28;46064;-79
2023/04/08 08:04:30;;;;;;;;;29.00;28.00;;;;;10.22;100.00;102018.25;5071148;28;46038;-79
2023/04/08 08:06:55;;;;;;;;;25.33;23.67;;;;;10.25;100.00;102018.91;5052581;28;45425;-80
2023/04/08 08:09:21;;;;;;;;;27.67;25.33;;;;;10.25;100.00;102006.47;5059395;28;45371;-79
2023/04/08 08:11:46;;;;;;;;;26.33;23.67;;;;;10.62;100.00;102015.53;5063552;28;45613;-77
2023/04/08 08:14:13;;;;;;;;;28.33;25.33;;;;;10.46;100.00;102008.16;5071652;28;50826;-77
2023/04/08 08:16:38;;;;;;;;;26.67;23.67;;;;;10.49;100.00;102010.53;5060331;28;45797;-78
2023/04/08 08:19:06;;;;;;;;;27.33;25.33;;;;;10.56;100.00;102016.97;5059930;28;45296;-77
2023/04/08 08:21:31;;;;;;;;;30.33;28.00;;;;;10.68;100.00;102022.09;5059943;28;45428;-76
2023/04/08 08:23:58;;;;;;;;;26.33;25.67;;;;;10.73;100.00;102022.53;5040717;28;47135;-77
2023/04/08 08:26:24;;;;;;;;;24.33;24.00;;;;;11.07;100.00;102018.50;5061454;28;45300;-78
2023/04/08 08:28:49;;;;;;;;;28.00;26.33;;;;;10.97;100.00;102026.53;5080112;28;45392;-77
2023/04/08 08:31:14;;;;;;;;;24.67;21.67;;;;;11.03;100.00;102014.44;5061616;28;46814;-78
2023/04/08 08:33:40;;;;;;;;;28.67;23.33;;;;;11.13;100.00;102015.25;5080288;28;49294;-78
2023/04/08 08:36:06;;;;;;;;;32.00;24.67;;;;;11.25;100.00;102021.22;5079505;28;45558;-77
2023/04/08 08:38:31;;;;;;;;;31.33;26.33;;;;;11.32;100.00;102032.94;5061221;28;45467;-77
2023/04/08 08:40:59;;;;;;;;;31.33;27.33;;;;;11.43;100.00;102028.44;5060629;28;46143;-76
2023/04/08 08:43:26;;;;;;;;;26.00;24.67;;;;;11.41;100.00;102028.59;5062763;28;45464;-75
2023/04/08 08:45:52;;;;;;;;;24.00;23.67;;;;;11.54;100.00;102036.22;5044000;28;45811;-77
2023/04/08 08:48:17;;;;;;;;;31.00;28.67;;;;;11.60;100.00;102024.13;5061741;28;45360;-76
2023/04/08 08:50:43;;;;;;;;;27.33;27.00;;;;;11.64;100.00;102033.47;5061831;28;45475;-76
2023/04/08 08:53:08;;;;;;;;;29.33;25.67;;;;;11.75;100.00;102027.13;5041129;28;47161;-76
2023/04/08 08:55:33;;;;;;;;;23.00;22.33;;;;;11.77;100.00;102017.16;5040631;28;45683;-77
2023/04/08 08:58:00;;;;;;;;;26.67;23.33;;;;;11.89;100.00;102028.44;5061001;28;45415;-76
2023/04/08 09:00:37;;;;;;;;;24.00;22.00;;;;;11.95;100.00;102024.31;5065550;28;45540;-77
2023/04/08 09:03:21;;;;;;;;;25.00;24.00;;;;;12.14;100.00;102033.16;5063592;28;45394;-76
2023/04/08 09:05:47;;;;;;;;;25.00;24.67;;;;;12.22;100.00;102031.41;5044331;28;45266;-76
2023/04/08 09:08:31;;;;;;;;;27.00;23.67;;;;;12.33;100.00;102025.00;5060162;28;45367;-76
2023/04/08 09:11:20;;;;;;;;;21.33;21.00;;;;;12.42;100.00;102030.41;5074488;28;45587;-76
2023/04/08 09:13:46;;;;;;;;;20.67;19.00;;;;;12.37;100.00;102014.88;5061947;28;48329;-76
2023/04/08 09:16:13;;;;;;;;;24.67;22.00;;;;;12.51;100.00;102032.13;5085489;28;45363;-78
2023/04/08 09:18:43;;;;;;;;;20.67;18.33;;;;;12.59;100.00;102029.53;5083375;28;45301;-78
2023/04/08 09:21:10;;;;;;;;;22.67;18.33;;;;;12.70;100.00;102036.47;5061659;28;46294;-77
2023/04/08 09:23:44;;;;;;;;;24.00;22.00;;;;;12.67;100.00;102012.75;5080015;28;45264;-77
2023/04/08 09:26:12;;;;;;;;;22.00;22.00;;;;;12.86;100.00;102026.88;5080537;28;45260;-78
2023/04/08 09:28:39;;;;;;;;;26.67;23.67;;;;;12.96;100.00;102027.59;5065121;28;45288;-76
2023/04/08 09:31:26;;;;;;;;;24.00;20.33;;;;;13.03;100.00;102019.81;5079943;27;45450;-77
2023/04/08 09:33:56;;;;;;;;;25.00;20.67;;;;;13.14;100.00;102016.00;5081807;27;45437;-76
2023/04/08 09:36:22;;;;;;;;;20.67;20.67;;;;;13.23;100.00;102020.38;5070531;28;45345;-79
2023/04/08 09:38:48;;;;;;;;;23.00;20.00;;;;;13.38;100.00;102030.47;5068253;28;45286;-77
2023/04/08 09:41:17;;;;;;;;;24.67;18.00;;;;;13.45;100.00;102022.63;5069549;28;45363;-77
2023/04/08 09:43:48;;;;;;;;;25.33;24.00;;;;;13.60;100.00;102030.88;5067560;28;46115;-77
2023/04/08 09:46:15;;;;;;;;;22.00;21.00;;;;;13.70;100.00;102020.03;5062760;28;45345;-77
2023/04/08 09:48:48;;;;;;;;;21.00;18.67;;;;;13.82;100.00;102025.91;5059584;28;45301;-78
2023/04/08 09:51:15;;;;;;;;;21.67;20.00;;;;;13.87;100.00;102023.59;5067290;28;45470;-78
2023/04/08 09:53:46;;;;;;;;;15.00;14.00;;;;;13.98;99.86;102023.25;5065811;28;45468;-76
2023/04/08 09:56:13;;;;;;;;;20.33;20.00;;;;;14.19;100.00;102027.28;5064201;28;45497;-78
2023/04/08 09:58:45;;;;;;;;;22.00;22.00;;;;;14.36;99.86;102027.28;5065800;28;45703;-76
2023/04/08 10:01:13;;;;;;;;;24.67;22.67;;;;;14.58;99.59;102027.63;5072144;28;45392;-77
2023/04/08 10:03:51;;;;;;;;;27.33;26.33;;;;;14.71;98.52;102032.44;5056060;28;46137;-78
2023/04/08 10:06:16;;;;;;;;;15.33;14.67;;;;;14.89;96.98;102033.09;5068404;28;45358;-78
2023/04/08 10:08:43;;;;;;;;;20.33;20.33;;;;;14.98;95.03;102027.72;5075572;28;45469;-77
2023/04/08 10:11:09;;;;;;;;;17.00;16.00;;;;;15.10;95.83;102041.56;5082135;28;45315;-78
2023/04/08 10:13:35;;;;;;;;;15.67;14.00;;;;;15.12;91.75;102044.91;5068246;28;47604;-76
2023/04/08 10:16:19;;;;;;;;;17.33;16.00;;;;;15.19;92.28;102039.69;5062322;28;45356;-77
2023/04/08 10:18:44;;;;;;;;;11.00;10.00;;;;;15.22;91.80;102045.53;5042296;28;45359;-77
2023/04/08 10:21:36;;;;;;;;;14.33;14.33;;;;;15.26;90.91;102030.78;5062207;28;45252;-78
2023/04/08 10:24:05;;;;;;;;;18.67;18.67;;;;;15.27;90.90;102027.09;5060634;28;46396;-78
2023/04/08 10:26:33;;;;;;;;;18.00;18.00;;;;;15.36;91.58;102022.53;5060532;28;45374;-78
2023/04/08 10:29:27;;;;;;;;;14.33;14.33;;;;;15.52;89.79;102027.00;5071012;28;45299;-77
2023/04/08 10:31:52;;;;;;;;;17.00;16.67;;;;;15.54;89.84;102026.81;5083025;27;45367;-77
2023/04/08 10:34:26;;;;;;;;;14.00;12.67;;;;;15.63;89.43;102031.09;5082497;27;46089;-79
2023/04/08 10:36:54;;;;;;;;;17.67;17.67;;;;;15.76;89.55;102009.09;5082626;28;45365;-78
2023/04/08 10:39:20;;;;;;;;;14.67;14.67;;;;;15.87;87.21;102007.81;5081053;28;45312;-77
2023/04/08 10:41:46;;;;;;;;;16.00;15.00;;;;;15.90;85.63;102025.41;5082135;27;45361;-77
2023/04/08 10:44:23;;;;;;;;;13.33;12.00;;;;;15.76;86.04;102006.41;5082685;27;45468;-77
2023/04/08 10:46:50;;;;;;;;;12.67;12.67;;;;;15.70;84.62;102015.16;5080971;27;45344;-78
2023/04/08 10:49:17;;;;;;;;;16.33;15.00;;;;;15.75;85.13;101999.38;5082521;28;45164;-78
2023/04/08 10:51:43;;;;;;;;;16.67;16.00;;;;;15.96;85.27;102005.09;5082077;27;46005;-79
2023/04/08 10:54:11;;;;;;;;;16.00;16.00;;;;;16.25;85.42;102014.28;5082875;28;45944;-79
2023/04/08 10:56:52;;;;;;;;;14.67;14.33;;;;;16.45;84.39;102006.56;5083557;27;45430;-79
2023/04/08 10:59:27;;;;;;;;;15.67;15.67;;;;;16.76;82.27;102010.09;5085620;28;45353;-78
2023/04/08 11:01:54;;;;;;;;;15.33;15.33;;;;;16.88;82.55;101986.31;5073476;28;46881;-79
2023/04/08 11:04:22;;;;;;;;;15.00;15.00;;;;;17.08;78.76;102000.03;5065833;28;46047;-77
2023/04/08 11:06:47;;;;;;;;;13.67;12.67;;;;;17.12;75.17;102000.50;5074986;28;45345;-77
2023/04/08 11:09:15;;;;;;;;;17.00;16.00;;;;;17.10;77.51;101995.31;5073397;28;45340;-79